createdAt,value
2022-11-17T00:00:42.336Z,2.95
2022-11-17T00:03:16.402Z,3.20
2022-11-17T00:05:44.907Z,3.26
2022-11-17T00:08:12.091Z,3.17
2022-11-17T00:10:39.127Z,3.17
2022-11-17T00:13:24.587Z,3.15
2022-11-17T00:15:51.583Z,3.17
2022-11-17T00:18:37.169Z,3.03
2022-11-17T00:21:19.955Z,2.89
2022-11-17T00:23:47.922Z,2.93
2022-11-17T00:26:21.423Z,3.08
2022-11-17T00:28:56.548Z,3.08
2022-11-17T00:31:44.001Z,3.09
2022-11-17T00:34:16.677Z,2.97
2022-11-17T00:36:49.702Z,3.03
2022-11-17T00:39:19.399Z,2.90
2022-11-17T00:41:46.555Z,2.83
2022-11-17T00:44:14.470Z,2.79
2022-11-17T00:46:43.190Z,2.96
2022-11-17T00:49:11.614Z,2.87
2022-11-17T00:51:39.282Z,2.91
2022-11-17T00:54:08.441Z,2.84
2022-11-17T00:56:35.547Z,2.81
2022-11-17T00:59:04.340Z,2.87
2022-11-17T01:01:31.683Z,2.75
2022-11-17T01:04:03.598Z,2.63
2022-11-17T01:06:41.786Z,2.70
2022-11-17T01:09:17.690Z,2.59
2022-11-17T01:11:45.064Z,2.61
2022-11-17T01:14:22.795Z,2.73
2022-11-17T01:16:50.277Z,2.61
2022-11-17T01:19:19.038Z,2.66
2022-11-17T01:21:47.124Z,2.52
2022-11-17T01:24:16.484Z,2.60
2022-11-17T01:26:45.396Z,2.48
2022-11-17T01:29:17.343Z,2.48
2022-11-17T01:31:45.741Z,2.35
2022-11-17T01:34:13.111Z,2.44
2022-11-17T01:37:01.605Z,2.30
2022-11-17T01:39:30.429Z,2.37
2022-11-17T01:41:58.117Z,2.28
2022-11-17T01:44:59.849Z,2.39
2022-11-17T01:47:37.590Z,2.15
2022-11-17T01:50:33.670Z,2.25
2022-11-17T01:53:05.143Z,2.34
2022-11-17T01:55:45.580Z,2.31
2022-11-17T01:58:20.374Z,2.38
2022-11-17T02:00:47.976Z,2.35
2022-11-17T02:03:14.989Z,2.34
2022-11-17T02:06:07.209Z,2.33
2022-11-17T02:08:38.718Z,2.24
2022-11-17T02:11:14.196Z,2.30
2022-11-17T02:13:41.772Z,2.33
2022-11-17T02:16:14.194Z,2.19
2022-11-17T02:18:43.542Z,2.18
2022-11-17T02:21:22.036Z,2.10
2022-11-17T02:24:16.397Z,2.07
2022-11-17T02:27:28.999Z,2.09
2022-11-17T02:30:12.140Z,2.06
2022-11-17T02:33:17.291Z,2.11
2022-11-17T02:35:58.524Z,2.05
2022-11-17T02:38:49.927Z,2.00
2022-11-17T02:41:35.362Z,1.87
2022-11-17T02:44:27.324Z,1.77
2022-11-17T02:47:09.563Z,1.91
2022-11-17T02:49:45.426Z,1.85
2022-11-17T02:52:14.456Z,1.95
2022-11-17T02:54:41.686Z,1.77
2022-11-17T02:57:31.404Z,1.72
2022-11-17T03:00:14.940Z,1.76
2022-11-17T03:03:18.678Z,1.77
2022-11-17T03:06:29.921Z,1.75
2022-11-17T03:09:25.853Z,1.86
2022-11-17T03:12:02.897Z,1.75
2022-11-17T03:15:15.490Z,1.70
2022-11-17T03:18:06.240Z,1.66
2022-11-17T03:21:01.822Z,1.81
2022-11-17T03:23:49.972Z,1.79
2022-11-17T03:26:27.542Z,1.66
2022-11-17T03:28:56.447Z,1.74
2022-11-17T03:31:26.325Z,1.64
2022-11-17T03:33:54.568Z,1.77
2022-11-17T03:36:34.160Z,1.74
2022-11-17T03:39:25.904Z,1.64
2022-11-17T03:42:00.144Z,1.61
2022-11-17T03:44:30.560Z,1.50
2022-11-17T03:47:00.154Z,1.48
2022-11-17T03:49:52.747Z,1.40
2022-11-17T03:52:20.804Z,1.40
2022-11-17T03:54:48.294Z,1.25
2022-11-17T03:57:54.532Z,1.42
2022-11-17T04:00:21.683Z,1.45
2022-11-17T04:02:54.323Z,1.37
2022-11-17T04:05:21.890Z,1.40
2022-11-17T04:07:49.249Z,1.40
2022-11-17T04:10:20.286Z,1.44
2022-11-17T04:13:07.334Z,1.41
2022-11-17T04:15:52.918Z,1.42
2022-11-17T04:18:21.330Z,1.38
2022-11-17T04:20:54.991Z,1.52
2022-11-17T04:23:23.725Z,1.48
2022-11-17T04:26:12.361Z,1.55
2022-11-17T04:28:49.600Z,1.40
2022-11-17T04:31:25.808Z,1.44
2022-11-17T04:33:56.321Z,1.45
2022-11-17T04:36:35.726Z,1.58
2022-11-17T04:39:03.631Z,1.63
2022-11-17T04:41:49.332Z,1.54
2022-11-17T04:44:17.957Z,1.30
2022-11-17T04:46:48.796Z,1.35
2022-11-17T04:49:18.041Z,1.42
2022-11-17T04:51:46.223Z,1.27
2022-11-17T04:54:16.760Z,1.58
2022-11-17T04:56:44.008Z,1.59
2022-11-17T04:59:11.154Z,1.65
2022-11-17T05:01:38.691Z,1.60
2022-11-17T05:04:15.447Z,1.55
2022-11-17T05:06:44.965Z,1.37
2022-11-17T05:09:17.134Z,1.39
2022-11-17T05:12:02.755Z,1.43
2022-11-17T05:14:30.561Z,1.50
2022-11-17T05:17:11.265Z,1.28
2022-11-17T05:19:44.851Z,1.36
2022-11-17T05:22:36.810Z,1.45
2022-11-17T05:25:05.220Z,1.67
2022-11-17T05:27:34.021Z,1.33
2022-11-17T05:30:03.434Z,1.59
2022-11-17T05:32:30.410Z,1.52
2022-11-17T05:34:57.462Z,1.48
2022-11-17T05:37:24.529Z,1.35
2022-11-17T05:39:51.447Z,1.30
2022-11-17T05:42:18.473Z,1.25
2022-11-17T05:44:46.440Z,1.48
2022-11-17T05:47:13.409Z,1.29
2022-11-17T05:49:40.665Z,1.38
2022-11-17T05:52:07.718Z,1.32
2022-11-17T05:54:34.878Z,1.47
2022-11-17T05:57:19.900Z,1.38
2022-11-17T05:59:54.483Z,1.28
2022-11-17T06:02:39.097Z,1.23
2022-11-17T06:05:07.724Z,1.29
2022-11-17T06:07:37.078Z,1.33
2022-11-17T06:10:05.080Z,1.39
2022-11-17T06:12:32.070Z,1.29
2022-11-17T06:14:59.060Z,1.30
2022-11-17T06:17:35.408Z,1.26
2022-11-17T06:20:21.768Z,1.10
2022-11-17T06:22:49.263Z,1.31
2022-11-17T06:25:20.710Z,1.31
2022-11-17T06:27:49.673Z,1.18
2022-11-17T06:30:17.497Z,1.28
2022-11-17T06:32:45.445Z,1.29
2022-11-17T06:35:14.519Z,1.26
2022-11-17T06:37:41.538Z,1.18
2022-11-17T06:40:10.242Z,1.36
2022-11-17T06:42:58.450Z,1.31
2022-11-17T06:45:25.879Z,1.33
2022-11-17T06:47:53.889Z,1.15
2022-11-17T06:50:21.099Z,1.36
2022-11-17T06:52:48.087Z,1.24
2022-11-17T06:55:15.208Z,1.28
2022-11-17T06:57:42.381Z,1.21
2022-11-17T07:00:10.581Z,1.20
2022-11-17T07:02:37.741Z,1.36
2022-11-17T07:05:05.538Z,1.31
2022-11-17T07:07:32.555Z,1.19
2022-11-17T07:09:59.587Z,1.20
2022-11-17T07:12:26.567Z,1.17
2022-11-17T07:14:53.685Z,1.29
2022-11-17T07:17:20.629Z,1.37
2022-11-17T07:19:47.677Z,1.59
2022-11-17T07:22:14.702Z,1.41
2022-11-17T07:24:41.730Z,1.19
2022-11-17T07:27:08.923Z,1.21
2022-11-17T07:29:35.937Z,1.13
2022-11-17T07:32:03.689Z,0.97
2022-11-17T07:34:30.866Z,1.00
2022-11-17T07:36:58.711Z,1.06
2022-11-17T07:39:25.696Z,1.00
2022-11-17T07:41:52.629Z,0.84
2022-11-17T07:44:19.660Z,0.86
2022-11-17T07:46:46.899Z,1.06
2022-11-17T07:49:13.946Z,1.06
2022-11-17T07:51:41.103Z,0.81
2022-11-17T07:54:08.061Z,0.78
2022-11-17T07:56:35.224Z,0.88
2022-11-17T07:59:02.338Z,0.93
2022-11-17T08:01:29.780Z,0.97
2022-11-17T08:03:57.925Z,0.91
2022-11-17T08:06:25.192Z,0.72
2022-11-17T08:08:53.604Z,0.80
2022-11-17T08:11:21.062Z,1.04
2022-11-17T08:13:48.212Z,0.96
2022-11-17T08:16:15.164Z,0.98
2022-11-17T08:18:45.962Z,1.06
2022-11-17T08:21:15.914Z,1.16
2022-11-17T08:23:43.179Z,1.10
2022-11-17T08:26:11.794Z,1.00
2022-11-17T08:28:39.364Z,1.09
2022-11-17T08:31:08.815Z,1.01
2022-11-17T08:33:36.062Z,1.07
2022-11-17T08:36:07.316Z,1.00
2022-11-17T08:38:35.227Z,1.06
2022-11-17T08:41:06.224Z,1.08
2022-11-17T08:43:33.450Z,0.92
2022-11-17T08:46:02.369Z,0.85
2022-11-17T08:48:31.781Z,0.62
2022-11-17T08:51:04.278Z,0.82
2022-11-17T08:53:31.390Z,0.83
2022-11-17T08:55:58.610Z,0.94
2022-11-17T08:58:25.889Z,1.11
2022-11-17T09:00:53.012Z,1.07
2022-11-17T09:03:20.124Z,1.32
2022-11-17T09:05:47.204Z,1.38
2022-11-17T09:08:43.877Z,1.29
2022-11-17T09:11:11.624Z,1.15
2022-11-17T09:13:40.333Z,1.09
2022-11-17T09:16:10.715Z,1.13
2022-11-17T09:18:39.187Z,0.98
2022-11-17T09:21:15.315Z,0.92
2022-11-17T09:23:42.576Z,0.79
2022-11-17T09:26:13.742Z,0.75
2022-11-17T09:28:41.187Z,0.81
2022-11-17T09:31:19.348Z,0.89
2022-11-17T09:33:46.857Z,0.73
2022-11-17T09:36:16.024Z,0.84
2022-11-17T09:38:43.145Z,0.81
2022-11-17T09:41:22.267Z,0.90
2022-11-17T09:44:08.947Z,0.84
2022-11-17T09:47:01.973Z,0.99
2022-11-17T09:49:40.796Z,1.11
2022-11-17T09:52:39.594Z,0.89
2022-11-17T09:55:09.156Z,0.97
2022-11-17T09:57:45.571Z,0.82
2022-11-17T10:00:20.190Z,0.75
2022-11-17T10:02:47.921Z,0.59
2022-11-17T10:05:33.092Z,0.77
2022-11-17T10:08:13.001Z,0.64
2022-11-17T10:10:50.291Z,0.71
2022-11-17T10:13:36.658Z,0.66
2022-11-17T10:16:06.218Z,0.93
2022-11-17T10:18:38.259Z,0.72
2022-11-17T10:21:08.325Z,0.76
2022-11-17T10:23:44.769Z,0.94
2022-11-17T10:26:15.665Z,1.01
2022-11-17T10:28:43.422Z,1.16
2022-11-17T10:31:17.682Z,1.23
2022-11-17T10:33:48.567Z,1.27
2022-11-17T10:36:20.840Z,1.03
2022-11-17T10:38:55.173Z,1.05
2022-11-17T10:41:42.837Z,0.92
2022-11-17T10:44:12.816Z,1.05
2022-11-17T10:47:03.124Z,0.81
2022-11-17T10:49:35.738Z,0.83
2022-11-17T10:52:11.762Z,0.94
2022-11-17T10:54:39.330Z,0.93
2022-11-17T10:57:13.754Z,1.16
2022-11-17T10:59:59.579Z,1.28
2022-11-17T11:02:40.265Z,1.08
2022-11-17T11:05:13.960Z,0.95
2022-11-17T11:07:41.931Z,1.01
2022-11-17T11:10:23.644Z,1.15
2022-11-17T11:13:32.578Z,1.20
2022-11-17T11:16:00.023Z,1.08
2022-11-17T11:18:30.301Z,1.07
2022-11-17T11:21:14.207Z,1.26
2022-11-17T11:24:09.127Z,1.22
2022-11-17T11:27:12.619Z,1.37
2022-11-17T11:29:39.471Z,1.21
2022-11-17T11:32:21.042Z,1.33
2022-11-17T11:34:59.946Z,1.33
2022-11-17T11:38:07.235Z,1.43
2022-11-17T11:40:40.759Z,1.46
2022-11-17T11:43:29.208Z,1.53
2022-11-17T11:46:16.225Z,1.47
2022-11-17T11:48:43.379Z,1.50
2022-11-17T11:51:29.088Z,1.37
2022-11-17T11:54:28.012Z,1.69
2022-11-17T11:56:55.610Z,1.59
2022-11-17T12:00:02.428Z,1.75
2022-11-17T12:03:13.404Z,1.85
2022-11-17T12:06:24.355Z,1.63
2022-11-17T12:09:18.965Z,1.67
2022-11-17T12:12:03.207Z,1.43
2022-11-17T12:14:34.242Z,1.51
2022-11-17T12:17:07.202Z,1.31
2022-11-17T12:19:59.591Z,1.40
2022-11-17T12:22:29.457Z,1.34
2022-11-17T12:25:24.647Z,1.19
2022-11-17T12:27:53.386Z,1.20
2022-11-17T12:30:36.738Z,1.31
2022-11-17T12:33:06.862Z,1.38
2022-11-17T12:35:37.364Z,1.47
2022-11-17T12:38:20.013Z,1.48
2022-11-17T12:40:47.777Z,1.71
2022-11-17T12:43:25.559Z,1.76
2022-11-17T12:46:23.964Z,1.61
2022-11-17T12:49:28.255Z,1.50
2022-11-17T12:52:06.238Z,1.72
2022-11-17T12:54:59.883Z,1.53
2022-11-17T12:57:34.265Z,1.55
2022-11-17T13:00:25.823Z,1.61
2022-11-17T13:03:24.975Z,1.79
2022-11-17T13:09:12.219Z,1.90
2022-11-17T13:11:39.213Z,1.58
2022-11-17T13:14:15.808Z,1.68
2022-11-17T13:16:50.976Z,1.60
2022-11-17T13:19:36.797Z,1.47
2022-11-17T13:22:13.833Z,1.94
2022-11-17T13:24:47.283Z,2.05
2022-11-17T13:27:30.621Z,1.72
2022-11-17T13:30:30.377Z,1.70
2022-11-17T13:33:01.676Z,2.09
2022-11-17T13:35:35.590Z,1.84
2022-11-17T13:38:23.779Z,1.84
2022-11-17T13:40:53.534Z,1.93
2022-11-17T13:43:23.206Z,1.61
2022-11-17T13:45:54.839Z,1.60
2022-11-17T13:48:40.746Z,1.75
2022-11-17T13:51:27.882Z,1.63
2022-11-17T13:54:05.354Z,1.62
2022-11-17T13:56:42.875Z,1.65
2022-11-17T13:59:33.958Z,1.87
2022-11-17T14:02:21.657Z,1.61
2022-11-17T14:05:11.224Z,1.65
2022-11-17T14:07:40.005Z,1.65
2022-11-17T14:10:22.498Z,1.67
2022-11-17T14:12:52.699Z,1.47
2022-11-17T14:15:29.220Z,1.29
2022-11-17T14:18:03.001Z,1.31
2022-11-17T14:20:35.800Z,1.34
2022-11-17T14:23:17.974Z,1.28
2022-11-17T14:25:50.131Z,1.32
2022-11-17T14:28:23.018Z,1.08
2022-11-17T14:30:53.446Z,1.11
2022-11-17T14:33:20.900Z,1.15
2022-11-17T14:35:59.270Z,0.92
2022-11-17T14:38:26.309Z,0.91
2022-11-17T14:40:53.914Z,0.98
2022-11-17T14:43:22.597Z,1.00
2022-11-17T14:45:50.620Z,0.97
2022-11-17T14:48:19.456Z,0.89
2022-11-17T14:50:47.479Z,0.88
2022-11-17T14:53:14.991Z,0.90
2022-11-17T14:55:41.992Z,0.85
2022-11-17T14:58:10.103Z,1.03
2022-11-17T15:00:37.647Z,0.97
2022-11-17T15:03:04.863Z,0.85
2022-11-17T15:05:31.975Z,0.66
2022-11-17T15:07:59.045Z,0.88
2022-11-17T15:10:26.118Z,0.68
2022-11-17T15:12:53.072Z,0.83
2022-11-17T15:15:20.064Z,0.81
2022-11-17T15:17:47.109Z,0.54
2022-11-17T15:20:14.394Z,0.66
2022-11-17T15:22:41.465Z,0.60
2022-11-17T15:25:09.234Z,0.39
2022-11-17T15:27:36.239Z,0.33
2022-11-17T15:30:04.555Z,0.43
2022-11-17T15:32:32.672Z,0.35
2022-11-17T15:34:59.660Z,0.41
2022-11-17T15:37:27.250Z,0.38
2022-11-17T15:39:54.371Z,0.42
2022-11-17T15:42:21.385Z,0.39
2022-11-17T15:44:48.630Z,0.37
2022-11-17T15:47:15.705Z,0.36
2022-11-17T15:49:42.939Z,0.20
2022-11-17T15:52:09.893Z,0.23
2022-11-17T15:54:36.884Z,0.24
2022-11-17T15:57:04.641Z,0.02
2022-11-17T15:59:32.048Z,0.10
2022-11-17T16:01:59.043Z,0.12
2022-11-17T16:04:26.106Z,0.15
2022-11-17T16:06:53.116Z,0.43
2022-11-17T16:09:20.432Z,0.29
2022-11-17T16:11:47.538Z,0.24
2022-11-17T16:14:15.090Z,0.35
2022-11-17T16:16:42.369Z,0.24
2022-11-17T16:19:09.492Z,0.18
2022-11-17T16:21:36.547Z,0.40
2022-11-17T16:24:03.713Z,0.30
2022-11-17T16:26:31.751Z,0.29
2022-11-17T16:29:00.984Z,0.41
2022-11-17T16:31:30.772Z,0.45
2022-11-17T16:34:06.598Z,0.43
2022-11-17T16:36:37.483Z,0.45
2022-11-17T16:39:08.091Z,0.42
2022-11-17T16:41:38.730Z,0.46
2022-11-17T16:44:15.081Z,0.38
2022-11-17T16:46:45.771Z,0.55
2022-11-17T16:49:15.955Z,0.65
2022-11-17T16:51:52.115Z,0.62
2022-11-17T16:54:19.976Z,0.64
2022-11-17T16:56:47.033Z,0.55
2022-11-17T16:59:14.953Z,0.54
2022-11-17T17:01:42.132Z,0.44
2022-11-17T17:04:10.703Z,0.44
2022-11-17T17:06:44.307Z,0.62
2022-11-17T17:09:13.657Z,0.49
2022-11-17T17:11:41.116Z,0.64
2022-11-17T17:14:11.951Z,0.54
2022-11-17T17:16:39.043Z,0.46
2022-11-17T17:19:09.581Z,0.61
2022-11-17T17:21:38.259Z,0.56
2022-11-17T17:24:06.131Z,0.62
2022-11-17T17:26:34.881Z,0.49
2022-11-17T17:29:04.631Z,0.60
2022-11-17T17:31:39.939Z,0.55
2022-11-17T17:34:08.527Z,0.60
2022-11-17T17:36:37.121Z,0.60
2022-11-17T17:39:05.692Z,0.52
2022-11-17T17:41:38.194Z,0.87
2022-11-17T17:44:07.601Z,0.70
2022-11-17T17:46:37.980Z,0.72
2022-11-17T17:49:05.991Z,0.64
2022-11-17T17:51:36.613Z,0.70
2022-11-17T17:54:03.695Z,0.65
2022-11-17T17:56:30.796Z,0.83
2022-11-17T17:58:58.418Z,0.54
2022-11-17T18:01:28.323Z,0.58
2022-11-17T18:04:01.407Z,0.64
2022-11-17T18:06:28.875Z,0.58
2022-11-17T18:08:57.168Z,0.45
2022-11-17T18:11:24.737Z,0.54
2022-11-17T18:13:52.931Z,0.51
2022-11-17T18:16:26.991Z,0.42
2022-11-17T18:19:03.064Z,0.50
2022-11-17T18:21:30.648Z,0.73
2022-11-17T18:24:01.376Z,0.62
2022-11-17T18:26:35.383Z,0.70
2022-11-17T18:29:18.587Z,0.44
2022-11-17T18:31:47.375Z,0.37
2022-11-17T18:34:21.808Z,0.40
2022-11-17T18:36:51.293Z,0.57
2022-11-17T18:39:18.716Z,0.65
2022-11-17T18:41:45.915Z,0.53
2022-11-17T18:44:15.295Z,0.36
2022-11-17T18:46:42.558Z,0.58
2022-11-17T18:49:09.627Z,0.44
2022-11-17T18:51:36.642Z,0.46
2022-11-17T18:54:04.200Z,0.42
2022-11-17T18:56:38.462Z,0.29
2022-11-17T18:59:13.566Z,0.34
2022-11-17T19:01:43.243Z,0.39
2022-11-17T19:04:13.686Z,0.40
2022-11-17T19:06:40.841Z,0.38
2022-11-17T19:09:08.409Z,0.24
2022-11-17T19:11:35.634Z,0.17
2022-11-17T19:14:04.250Z,0.19
2022-11-17T19:16:32.583Z,0.24
2022-11-17T19:18:59.842Z,0.34
2022-11-17T19:21:30.828Z,0.54
2022-11-17T19:24:00.440Z,0.39
2022-11-17T19:26:36.016Z,0.33
2022-11-17T19:29:15.543Z,0.42
2022-11-17T19:31:44.085Z,0.32
2022-11-17T19:34:11.511Z,0.32
2022-11-17T19:36:38.682Z,0.38
2022-11-17T19:39:05.769Z,0.43
2022-11-17T19:41:38.388Z,0.42
2022-11-17T19:44:08.469Z,0.56
2022-11-17T19:46:36.889Z,0.58
2022-11-17T19:49:06.138Z,0.51
2022-11-17T19:51:38.498Z,0.54
2022-11-17T19:54:08.802Z,0.54
2022-11-17T19:56:37.234Z,0.71
2022-11-17T19:59:04.900Z,0.55
2022-11-17T20:01:33.588Z,0.55
2022-11-17T20:04:01.932Z,0.47
2022-11-17T20:06:37.064Z,0.56
2022-11-17T20:09:13.270Z,0.51
2022-11-17T20:11:41.320Z,0.47
2022-11-17T20:14:08.994Z,0.60
2022-11-17T20:16:38.642Z,0.64
2022-11-17T20:19:05.946Z,0.58
2022-11-17T20:21:33.723Z,0.50
2022-11-17T20:24:01.921Z,0.26
2022-11-17T20:26:32.206Z,0.33
2022-11-17T20:29:00.549Z,0.40
2022-11-17T20:31:32.154Z,0.52
2022-11-17T20:34:01.020Z,0.51
2022-11-17T20:36:31.219Z,0.51
2022-11-17T20:39:02.342Z,0.52
2022-11-17T20:41:30.358Z,0.51
2022-11-17T20:43:59.939Z,0.54
2022-11-17T20:46:27.977Z,0.44
2022-11-17T20:48:55.395Z,0.66
2022-11-17T20:51:25.183Z,0.44
2022-11-17T20:53:52.474Z,0.40
2022-11-17T20:56:19.939Z,0.54
2022-11-17T20:58:47.416Z,0.58
2022-11-17T21:01:20.648Z,0.34
2022-11-17T21:03:47.929Z,0.33
2022-11-17T21:06:16.486Z,0.44
2022-11-17T21:08:45.134Z,0.44
2022-11-17T21:11:34.303Z,0.25
2022-11-17T21:14:02.070Z,0.37
2022-11-17T21:16:29.485Z,0.31
2022-11-17T21:18:56.540Z,0.41
2022-11-17T21:21:23.560Z,0.38
2022-11-17T21:23:54.306Z,0.31
2022-11-17T21:26:23.021Z,0.57
2022-11-17T21:28:50.567Z,0.54
2022-11-17T21:31:27.449Z,0.42
2022-11-17T21:33:57.504Z,0.14
2022-11-17T21:36:27.408Z,0.08
2022-11-17T21:38:55.797Z,0.05
2022-11-17T21:41:30.099Z,0.19
2022-11-17T21:44:03.226Z,0.06
2022-11-17T21:46:33.920Z,0.26
2022-11-17T21:49:01.355Z,0.24
2022-11-17T21:51:35.364Z,0.22
2022-11-17T21:54:05.726Z,0.28
2022-11-17T21:56:33.208Z,0.27
2022-11-17T21:59:10.231Z,0.14
2022-11-17T22:01:37.955Z,0.33
2022-11-17T22:04:06.046Z,0.50
2022-11-17T22:06:33.875Z,0.43
2022-11-17T22:09:00.928Z,0.25
2022-11-17T22:11:37.689Z,0.07
2022-11-17T22:14:18.274Z,0.26
2022-11-17T22:16:56.413Z,0.13
2022-11-17T22:19:27.874Z,0.27
2022-11-17T22:21:55.411Z,0.29
2022-11-17T22:24:23.286Z,0.37
2022-11-17T22:26:51.696Z,0.29
2022-11-17T22:29:22.352Z,0.37
2022-11-17T22:31:50.885Z,0.29
2022-11-17T22:34:19.022Z,0.38
2022-11-17T22:36:46.242Z,0.38
2022-11-17T22:39:13.691Z,0.51
2022-11-17T22:41:40.895Z,0.33
2022-11-17T22:44:08.049Z,0.23
2022-11-17T22:46:36.419Z,0.08
2022-11-17T22:49:04.102Z,0.11
2022-11-17T22:51:50.112Z,0.10
2022-11-17T22:54:17.319Z,0.23
2022-11-17T22:56:45.625Z,0.29
2022-11-17T22:59:12.697Z,0.17
2022-11-17T23:01:39.803Z,0.14
2022-11-17T23:04:07.050Z,0.15
2022-11-17T23:06:34.391Z,0.13
2022-11-17T23:09:01.456Z,0.25
2022-11-17T23:11:38.365Z,0.30
2022-11-17T23:14:09.493Z,0.26
2022-11-17T23:16:37.886Z,0.34
2022-11-17T23:19:05.835Z,0.11
2022-11-17T23:21:33.347Z,0.14
2022-11-17T23:24:00.434Z,0.30
2022-11-17T23:26:27.567Z,0.19
2022-11-17T23:28:54.711Z,0.21
2022-11-17T23:31:21.680Z,0.24
2022-11-17T23:33:49.108Z,0.05
2022-11-17T23:36:19.450Z,-0.02
2022-11-17T23:38:48.274Z,0.12
2022-11-17T23:41:19.283Z,-0.06
2022-11-17T23:43:49.684Z,0.13
2022-11-17T23:46:19.756Z,0.04
2022-11-17T23:48:47.111Z,0.08
2022-11-17T23:51:25.805Z,0.04
2022-11-17T23:53:53.209Z,-0.11
2022-11-17T23:56:21.311Z,-0.06
2022-11-17T23:58:49.247Z,-0.02
